Time;durP1;ratioP1;P1;durP2;ratioP2;P2;SDS_P1;SDS_P2;PMS_P1;PMS_P2;Temp;Humidity;BMP_temperature;BMP_pressure;BME280_temperature;BME280_humidity;BME280_pressure;Samples;Min_cycle;Max_cycle;Signal;HPM_P1;HPM_P2
2021/10/27 00:00:35;;;;;;;23.10;7.75;;;;;;;12.74;100.00;102269.63;5161271;28;20097;-72
2021/10/27 00:03:05;;;;;;;16.65;7.22;;;;;;;12.75;100.00;102268.63;5160742;28;20368;-74
2021/10/27 00:05:36;;;;;;;16.23;7.03;;;;;;;12.79;100.00;102272.72;5161587;28;20547;-73
2021/10/27 00:08:06;;;;;;;25.30;7.20;;;;;;;12.79;100.00;102267.34;5160851;28;20121;-72
2021/10/27 00:10:37;;;;;;;19.25;6.30;;;;;;;12.78;100.00;102262.97;5159895;28;20023;-73
2021/10/27 00:13:08;;;;;;;17.90;6.78;;;;;;;12.80;100.00;102256.47;5161257;28;20382;-74
2021/10/27 00:15:38;;;;;;;19.70;7.32;;;;;;;12.80;100.00;102261.84;5161853;28;20558;-73
2021/10/27 00:18:09;;;;;;;17.40;6.15;;;;;;;12.80;100.00;102260.97;5161020;28;20064;-73
2021/10/27 00:20:40;;;;;;;21.63;6.18;;;;;;;12.81;100.00;102268.91;5160805;28;20029;-74
2021/10/27 00:23:10;;;;;;;16.55;5.65;;;;;;;12.80;100.00;102263.66;5161034;28;20053;-74
2021/10/27 00:25:41;;;;;;;18.58;6.50;;;;;;;12.80;100.00;102263.66;5160903;28;20022;-73
2021/10/27 00:28:11;;;;;;;15.63;5.90;;;;;;;12.81;100.00;102262.69;5159919;28;20511;-73
2021/10/27 00:30:42;;;;;;;16.80;5.40;;;;;;;12.81;100.00;102276.16;5160794;28;20088;-73
2021/10/27 00:33:12;;;;;;;16.55;5.45;;;;;;;12.84;100.00;102267.75;5161170;28;20032;-74
2021/10/27 00:35:43;;;;;;;15.23;5.38;;;;;;;12.84;100.00;102265.91;5160863;28;20351;-74
2021/10/27 00:38:14;;;;;;;18.25;4.95;;;;;;;12.87;100.00;102272.88;5161095;28;20034;-74
2021/10/27 00:40:45;;;;;;;13.30;5.00;;;;;;;12.88;100.00;102274.56;5159394;28;20026;-73
2021/10/27 00:43:16;;;;;;;19.30;5.47;;;;;;;12.86;100.00;102271.19;5160968;28;20026;-74
2021/10/27 00:45:47;;;;;;;14.82;5.25;;;;;;;12.85;100.00;102275.72;5160036;28;20040;-74
2021/10/27 00:48:17;;;;;;;13.20;5.53;;;;;;;12.86;100.00;102280.09;5161012;28;20449;-74
2021/10/27 00:50:48;;;;;;;13.93;5.13;;;;;;;12.83;100.00;102275.00;5160564;28;20550;-73
2021/10/27 00:53:18;;;;;;;15.02;5.35;;;;;;;12.80;100.00;102271.72;5160738;28;20117;-72
2021/10/27 00:55:51;;;;;;;16.70;4.90;;;;;;;12.79;100.00;102270.88;5160575;28;20030;-74
2021/10/27 00:58:21;;;;;;;18.35;5.78;;;;;;;12.81;100.00;102268.06;5160167;28;20180;-74
2021/10/27 01:00:52;;;;;;;18.23;5.78;;;;;;;12.79;100.00;102270.03;5160277;28;20453;-73
2021/10/27 01:03:22;;;;;;;16.58;5.57;;;;;;;12.76;100.00;102267.66;5161045;28;20117;-73
2021/10/27 01:05:53;;;;;;;15.95;6.13;;;;;;;12.75;100.00;102263.25;5160781;28;20022;-73
2021/10/27 01:08:24;;;;;;;15.15;6.20;;;;;;;12.73;100.00;102262.56;5161070;28;20034;-73
2021/10/27 01:10:55;;;;;;;19.88;6.10;;;;;;;12.71;100.00;102265.41;5160220;28;20030;-73
2021/10/27 01:13:25;;;;;;;14.45;5.97;;;;;;;12.74;100.00;102265.09;5161111;28;20030;-73
2021/10/27 01:15:56;;;;;;;22.08;7.32;;;;;;;12.74;100.00;102251.63;5165079;28;20015;-74
2021/10/27 01:18:28;;;;;;;18.55;6.82;;;;;;;12.74;100.00;102250.78;5165189;28;20492;-74
2021/10/27 01:20:59;;;;;;;21.58;6.22;;;;;;;12.72;100.00;102252.78;5164220;28;20182;-73
2021/10/27 01:23:29;;;;;;;18.33;6.13;;;;;;;12.72;100.00;102250.09;5164998;28;20559;-73
2021/10/27 01:26:08;;;;;;;18.63;6.50;;;;;;;12.72;100.00;102256.31;5164516;28;20030;-74
2021/10/27 01:28:40;;;;;;;15.80;6.45;;;;;;;12.72;100.00;102252.78;5164836;28;20026;-74
2021/10/27 01:31:13;;;;;;;19.85;6.75;;;;;;;12.73;100.00;102249.94;5164507;28;20065;-74
2021/10/27 01:33:44;;;;;;;25.08;6.70;;;;;;;12.76;100.00;102246.13;5164450;28;20026;-74
2021/10/27 01:36:16;;;;;;;22.65;6.90;;;;;;;12.76;100.00;102248.81;5164602;28;20332;-74
2021/10/27 01:38:48;;;;;;;15.63;6.10;;;;;;;12.76;100.00;102246.13;5163809;28;20492;-74
2021/10/27 01:41:19;;;;;;;17.75;6.07;;;;;;;12.73;100.00;102232.94;5164614;28;20380;-74
2021/10/27 01:43:53;;;;;;;20.95;6.55;;;;;;;12.71;100.00;102238.47;5164640;28;20054;-74
2021/10/27 01:46:27;;;;;;;14.60;6.47;;;;;;;12.68;100.00;102234.22;5164251;28;20026;-72
2021/10/27 01:48:59;;;;;;;15.20;6.53;;;;;;;12.68;100.00;102239.59;5164095;28;20030;-73
2021/10/27 01:51:34;;;;;;;;;;;;;;;12.62;100.00;102232.13;5165126;28;20065;-72
2021/10/27 01:54:10;;;;;;;14.52;6.40;;;;;;;12.55;100.00;102228.31;5164418;28;20391;-72
2021/10/27 01:56:41;;;;;;;17.63;6.65;;;;;;;12.44;100.00;102226.63;5164023;28;20037;-72
2021/10/27 01:59:11;;;;;;;21.50;7.30;;;;;;;12.35;100.00;102234.72;5164188;28;20030;-72
2021/10/27 02:01:50;;;;;;;16.63;6.13;;;;;;;12.28;100.00;102239.81;5163891;28;20033;-73
2021/10/27 02:04:21;;;;;;;19.60;5.93;;;;;;;12.16;100.00;102232.91;5164613;28;20028;-73
2021/10/27 02:06:51;;;;;;;13.50;5.68;;;;;;;12.09;100.00;102235.31;5163344;28;20041;-75
2021/10/27 02:09:22;;;;;;;16.60;6.25;;;;;;;12.00;100.00;102227.25;5163539;28;20046;-73
2021/10/27 02:11:53;;;;;;;16.73;5.65;;;;;;;11.92;100.00;102223.44;5163895;28;20036;-73
2021/10/27 02:14:24;;;;;;;15.80;5.88;;;;;;;11.86;100.00;102228.53;5163769;28;20026;-73
2021/10/27 02:16:54;;;;;;;17.17;6.38;;;;;;;11.81;100.00;102226.22;5163600;28;20389;-73
2021/10/27 02:19:25;;;;;;;21.90;6.97;;;;;;;11.75;100.00;102228.66;5162975;28;20026;-73
2021/10/27 02:21:56;;;;;;;21.83;6.75;;;;;;;11.70;100.00;102234.44;5163601;28;20101;-73
2021/10/27 02:24:26;;;;;;;18.60;6.05;;;;;;;11.66;100.00;102231.16;5163362;28;20030;-74
2021/10/27 02:26:57;;;;;;;16.67;6.55;;;;;;;11.59;100.00;102232.69;5162959;28;20081;-74
2021/10/27 02:29:27;;;;;;;16.23;7.00;;;;;;;11.55;100.00;102238.53;5163084;28;20105;-74
2021/10/27 02:31:58;;;;;;;16.67;6.30;;;;;;;11.49;100.00;102231.84;5163395;28;20058;-73
2021/10/27 02:34:29;;;;;;;17.23;6.13;;;;;;;11.47;100.00;102233.81;5163236;28;20120;-74
2021/10/27 02:37:00;;;;;;;23.33;7.13;;;;;;;11.42;100.00;102241.44;5163162;28;20033;-74
2021/10/27 02:39:30;;;;;;;19.67;6.65;;;;;;;11.37;100.00;102236.50;5161738;28;20102;-74
2021/10/27 02:42:01;;;;;;;18.05;7.00;;;;;;;11.33;100.00;102242.28;5163186;28;20023;-73
2021/10/27 02:44:31;;;;;;;19.73;6.20;;;;;;;11.35;100.00;102248.38;5163254;28;20498;-72
2021/10/27 02:47:03;;;;;;;17.35;6.43;;;;;;;11.40;100.00;102251.50;5162927;28;20389;-73
2021/10/27 02:49:33;;;;;;;20.02;6.75;;;;;;;11.46;100.00;102253.63;5162804;28;20389;-74
2021/10/27 02:52:04;;;;;;;17.98;7.03;;;;;;;11.52;100.00;102255.75;5162815;28;20029;-74
2021/10/27 02:54:35;;;;;;;20.13;7.40;;;;;;;11.57;100.00;102239.22;5163003;28;20177;-74
2021/10/27 02:57:05;;;;;;;16.45;6.43;;;;;;;11.62;100.00;102242.34;5162654;28;20507;-73
2021/10/27 02:59:36;;;;;;;23.83;7.20;;;;;;;11.67;100.00;102250.84;5162378;28;20037;-73
2021/10/27 03:02:06;;;;;;;22.70;7.13;;;;;;;11.73;100.00;102244.03;5162718;28;20033;-74
2021/10/27 03:04:37;;;;;;;16.85;6.53;;;;;;;11.76;100.00;102247.31;5163016;28;20049;-73
2021/10/27 03:07:07;;;;;;;21.23;7.03;;;;;;;11.78;100.00;102241.78;5162518;28;20519;-74
2021/10/27 03:09:38;;;;;;;17.92;7.15;;;;;;;11.79;100.00;102243.47;5161831;28;20023;-73
2021/10/27 03:12:09;;;;;;;22.55;6.82;;;;;;;11.80;100.00;102251.44;5162645;28;20018;-73
2021/10/27 03:14:39;;;;;;;14.38;7.07;;;;;;;11.81;100.00;102237.00;5162642;28;20030;-73
2021/10/27 03:17:10;;;;;;;19.42;7.10;;;;;;;11.77;100.00;102223.97;5162368;28;20500;-73
2021/10/27 03:19:40;;;;;;;19.10;6.38;;;;;;;11.76;100.00;102233.88;5161954;28;20034;-74
2021/10/27 03:22:11;;;;;;;17.77;5.72;;;;;;;11.76;100.00;102222.28;5162365;28;20034;-73
2021/10/27 03:24:41;;;;;;;14.32;6.40;;;;;;;11.84;100.00;102227.81;5162492;28;20034;-73
2021/10/27 03:27:12;;;;;;;13.27;5.43;;;;;;;11.89;100.00;102228.22;5162954;28;20061;-72
2021/10/27 03:29:43;;;;;;;16.55;5.35;;;;;;;11.94;100.00;102234.03;5161821;28;20435;-74
2021/10/27 03:32:13;;;;;;;19.00;6.40;;;;;;;11.99;100.00;102236.31;5162050;28;20026;-74
2021/10/27 03:34:44;;;;;;;17.30;6.35;;;;;;;12.01;100.00;102240.56;5162007;28;20161;-74
2021/10/27 03:37:15;;;;;;;15.35;5.30;;;;;;;12.05;100.00;102238.41;5161259;28;20061;-75
2021/10/27 03:39:45;;;;;;;15.52;5.60;;;;;;;12.06;100.00;102232.06;5160290;28;20026;-74
2021/10/27 03:42:16;;;;;;;17.58;5.60;;;;;;;12.09;100.00;102231.78;5162125;28;20065;-73
2021/10/27 03:44:46;;;;;;;15.60;5.30;;;;;;;12.13;100.00;102241.25;5161651;28;20022;-74
2021/10/27 03:47:17;;;;;;;13.38;5.03;;;;;;;12.15;100.00;102239.28;5161611;28;20037;-74
2021/10/27 03:49:48;;;;;;;17.77;5.88;;;;;;;12.14;100.00;102242.94;5161762;28;20026;-74
2021/10/27 03:52:19;;;;;;;10.73;5.07;;;;;;;12.14;100.00;102237.56;5161866;28;20026;-73
2021/10/27 03:54:49;;;;;;;15.65;5.53;;;;;;;12.18;100.00;102239.00;5162139;28;20372;-72
2021/10/27 03:57:20;;;;;;;14.63;5.78;;;;;;;12.19;100.00;102241.53;5161427;28;20022;-73
2021/10/27 03:59:50;;;;;;;13.88;5.88;;;;;;;12.23;100.00;102241.25;5161146;28;20364;-74
2021/10/27 04:02:21;;;;;;;11.05;5.30;;;;;;;12.21;100.00;102233.34;5161489;28;20027;-74
2021/10/27 04:04:51;;;;;;;22.50;5.18;;;;;;;12.22;100.00;102235.03;5161701;28;20031;-73
2021/10/27 04:07:22;;;;;;;14.30;5.43;;;;;;;12.22;100.00;102234.19;5161380;28;20045;-73
2021/10/27 04:09:52;;;;;;;11.05;4.97;;;;;;;12.19;100.00;102236.16;5161037;28;20488;-74
2021/10/27 04:12:23;;;;;;;13.70;4.85;;;;;;;12.14;100.00;102233.03;5161601;28;20077;-74
2021/10/27 04:14:53;;;;;;;17.02;5.50;;;;;;;12.12;100.00;102237.72;5161395;28;20105;-74
2021/10/27 04:17:24;;;;;;;13.07;5.10;;;;;;;12.10;100.00;102231.66;5161364;28;20035;-74
2021/10/27 04:19:54;;;;;;;15.15;5.65;;;;;;;12.11;100.00;102235.19;5161134;28;20096;-72
2021/10/27 04:22:25;;;;;;;15.10;5.28;;;;;;;12.12;100.00;102245.78;5160912;28;20057;-73
2021/10/27 04:24:55;;;;;;;17.23;5.72;;;;;;;12.13;100.00;102244.78;5161380;28;20072;-73
2021/10/27 04:27:26;;;;;;;19.67;5.43;;;;;;;12.15;100.00;102248.22;5161003;28;20084;-73
2021/10/27 04:29:57;;;;;;;10.10;4.97;;;;;;;12.20;100.00;102242.41;5161074;28;20030;-73
2021/10/27 04:32:27;;;;;;;16.45;5.30;;;;;;;12.22;100.00;102245.78;5161183;28;20030;-74
2021/10/27 04:34:58;;;;;;;12.90;4.93;;;;;;;12.25;100.00;102244.63;5160857;28;20026;-74
2021/10/27 04:37:33;;;;;;;13.73;4.30;;;;;;;12.25;100.00;102241.94;5160988;28;20054;-74
2021/10/27 04:40:05;;;;;;;18.95;5.28;;;;;;;12.25;100.00;102237.44;5159875;28;20132;-74
2021/10/27 04:42:36;;;;;;;11.38;5.32;;;;;;;12.28;100.00;102238.97;5161024;28;20027;-74
2021/10/27 04:45:09;;;;;;;11.25;5.25;;;;;;;12.31;100.00;102249.47;5160864;28;20051;-74
2021/10/27 04:47:42;;;;;;;20.23;4.78;;;;;;;12.30;100.00;102239.69;5160743;28;20027;-74
2021/10/27 04:50:13;;;;;;;22.20;5.35;;;;;;;12.29;100.00;102241.53;5160143;28;20263;-73
2021/10/27 04:52:44;;;;;;;10.10;5.15;;;;;;;12.30;100.00;102243.25;5160659;28;20034;-73
2021/10/27 04:55:14;;;;;;;14.23;6.25;;;;;;;12.28;100.00;102245.22;5160793;28;21860;-73
2021/10/27 04:57:45;;;;;;;16.27;4.93;;;;;;;12.30;100.00;102245.94;5160905;28;20095;-73
2021/10/27 05:00:17;;;;;;;17.77;5.45;;;;;;;12.30;100.00;102245.06;5160447;28;20025;-75
2021/10/27 05:02:47;;;;;;;12.48;5.05;;;;;;;12.31;100.00;102249.47;5161421;28;20110;-73
2021/10/27 05:05:18;;;;;;;13.65;5.75;;;;;;;12.30;100.00;102247.75;5160820;28;20117;-73
2021/10/27 05:07:51;;;;;;;14.00;5.20;;;;;;;12.28;100.00;102253.28;5160747;28;20080;-74
2021/10/27 05:10:22;;;;;;;12.93;5.47;;;;;;;12.28;100.00;102255.13;5160374;28;20053;-75
2021/10/27 05:12:52;;;;;;;16.98;7.07;;;;;;;12.27;100.00;102250.75;5160732;28;20022;-74
2021/10/27 05:15:23;;;;;;;16.02;5.00;;;;;;;12.26;100.00;102254.44;5160759;28;20025;-74
2021/10/27 05:17:53;;;;;;;15.50;4.70;;;;;;;12.25;100.00;102256.28;5160569;28;20040;-74
2021/10/27 05:20:24;;;;;;;13.70;5.47;;;;;;;12.22;100.00;102251.16;5160626;28;20023;-74
2021/10/27 05:22:54;;;;;;;13.57;5.40;;;;;;;12.21;100.00;102254.00;5160274;28;20031;-75
2021/10/27 05:25:25;;;;;;;12.95;5.60;;;;;;;12.21;100.00;102259.41;5160797;28;20085;-74
2021/10/27 05:27:55;;;;;;;16.38;5.90;;;;;;;12.17;100.00;102254.28;5160414;28;20109;-72
2021/10/27 05:30:27;;;;;;;13.40;5.25;;;;;;;12.18;100.00;102249.75;5160177;28;20062;-73
2021/10/27 05:32:58;;;;;;;14.50;5.95;;;;;;;12.15;100.00;102250.06;5160541;28;20022;-73
2021/10/27 05:35:30;;;;;;;16.88;6.03;;;;;;;12.15;100.00;102250.91;5160207;28;20035;-73
2021/10/27 05:38:01;;;;;;;16.13;5.47;;;;;;;12.13;100.00;102252.03;5160915;28;20026;-73
2021/10/27 05:40:32;;;;;;;17.80;5.68;;;;;;;12.17;100.00;102246.22;5159027;28;20480;-74
2021/10/27 05:43:08;;;;;;;18.50;5.10;;;;;;;12.16;100.00;102249.91;5160383;28;20085;-72
2021/10/27 05:45:38;;;;;;;13.05;5.32;;;;;;;12.14;100.00;102245.66;5159719;28;20053;-73
2021/10/27 05:48:11;;;;;;;23.88;6.82;;;;;;;12.13;100.00;102235.88;5160530;28;20032;-73
2021/10/27 05:50:45;;;;;;;16.35;5.82;;;;;;;12.11;100.00;102236.03;5160084;28;20030;-73
2021/10/27 05:56:04;;;;;;;18.27;5.53;;;;;;;12.03;100.00;102233.19;5160414;28;20023;-73
2021/10/27 05:58:35;;;;;;;19.13;6.47;;;;;;;12.00;100.00;102241.56;5160280;28;20034;-74
2021/10/27 06:01:05;;;;;;;16.98;6.25;;;;;;;11.98;100.00;102243.53;5160903;28;20030;-73
2021/10/27 06:03:36;;;;;;;11.80;5.72;;;;;;;11.99;100.00;102236.31;5163717;28;20126;-73
2021/10/27 06:06:07;;;;;;;18.08;7.00;;;;;;;11.96;100.00;102234.75;5163544;28;20026;-72
2021/10/27 06:08:38;;;;;;;18.67;6.03;;;;;;;11.94;100.00;102231.34;5163486;28;20023;-71
2021/10/27 06:11:10;;;;;;;18.50;6.57;;;;;;;11.88;100.00;102229.22;5162029;28;20038;-73
2021/10/27 06:13:47;;;;;;;16.65;5.63;;;;;;;11.84;100.00;102235.88;5163754;28;20040;-73
2021/10/27 06:16:17;;;;;;;13.23;6.25;;;;;;;11.81;100.00;102233.44;5163430;28;20299;-73
2021/10/27 06:18:48;;;;;;;18.73;6.78;;;;;;;11.80;100.00;102240.66;5163970;28;20109;-73
2021/10/27 06:21:18;;;;;;;15.05;6.72;;;;;;;11.80;100.00;102232.59;5162067;28;20022;-72
2021/10/27 06:23:49;;;;;;;18.45;7.50;;;;;;;11.80;100.00;102245.19;5163543;28;20084;-73
2021/10/27 06:26:22;;;;;;;19.83;6.78;;;;;;;11.85;100.00;102240.28;5163140;28;20042;-73
2021/10/27 06:29:02;;;;;;;17.98;5.95;;;;;;;11.85;100.00;102257.28;5163366;28;20567;-73
2021/10/27 06:31:36;;;;;;;13.80;6.15;;;;;;;11.88;100.00;102248.06;5163327;28;20030;-73
2021/10/27 06:39:31;;;;;;;19.38;7.38;;;;;;;11.87;100.00;102265.19;5162239;28;20036;-72
2021/10/27 06:47:39;;;;;;;11.88;6.00;;;;;;;11.76;100.00;102258.06;5163115;28;20735;-73
2021/10/27 06:50:10;;;;;;;29.77;7.07;;;;;;;11.71;100.00;102268.41;5162487;28;20060;-73
2021/10/27 06:52:40;;;;;;;21.30;7.45;;;;;;;11.62;100.00;102269.22;5163445;28;20380;-73
2021/10/27 06:55:11;;;;;;;18.63;7.68;;;;;;;11.59;100.00;102274.84;5162917;28;20019;-73
2021/10/27 06:57:41;;;;;;;14.95;7.57;;;;;;;11.57;100.00;102277.69;5162880;28;20506;-73
2021/10/27 07:00:22;;;;;;;21.70;8.07;;;;;;;11.58;100.00;102283.91;5162095;28;20050;-73
2021/10/27 07:05:47;;;;;;;24.45;7.75;;;;;;;11.73;100.00;102306.72;5162924;28;20052;-74
2021/10/27 07:16:45;;;;;;;20.58;7.20;;;;;;;12.01;100.00;102315.03;5150258;28;20392;-74
2021/10/27 07:19:15;;;;;;;14.57;6.65;;;;;;;12.04;100.00;102318.25;5161981;28;20114;-74
2021/10/27 07:21:46;;;;;;;13.20;6.75;;;;;;;12.09;100.00;102320.53;5162268;28;20045;-75
2021/10/27 07:24:17;;;;;;;23.90;7.78;;;;;;;12.12;100.00;102322.97;5162429;28;20022;-74
2021/10/27 07:26:47;;;;;;;16.95;7.07;;;;;;;12.14;100.00;102329.03;5162157;28;20026;-75
2021/10/27 07:29:19;;;;;;;21.70;7.88;;;;;;;12.17;100.00;102335.00;5147353;28;20520;-75
2021/10/27 07:31:50;;;;;;;29.98;7.35;;;;;;;12.23;100.00;102332.72;5172159;28;20034;-75
2021/10/27 07:34:30;;;;;;;26.85;8.55;;;;;;;12.27;100.00;102332.31;5159837;28;20038;-74
2021/10/27 07:42:23;;;;;;;21.73;7.70;;;;;;;12.36;100.00;102328.78;5157884;28;20038;-74
2021/10/27 07:44:53;;;;;;;22.27;8.00;;;;;;;12.43;100.00;102327.22;5159960;28;20109;-74
2021/10/27 07:47:24;;;;;;;18.17;8.13;;;;;;;12.52;100.00;102328.19;5158753;28;20088;-75
2021/10/27 07:49:54;;;;;;;17.88;8.20;;;;;;;12.57;100.00;102336.69;5159208;28;20030;-74
2021/10/27 07:52:25;;;;;;;19.02;8.10;;;;;;;12.58;100.00;102330.31;5158034;28;20141;-75
2021/10/27 07:54:55;;;;;;;16.77;8.38;;;;;;;12.62;100.00;102328.19;5158938;28;20235;-74
2021/10/27 07:57:26;;;;;;;19.48;8.48;;;;;;;12.66;100.00;102335.84;5158020;28;20026;-74
2021/10/27 07:59:56;;;;;;;21.58;8.80;;;;;;;12.69;100.00;102332.84;5158789;28;20077;-74
2021/10/27 08:02:27;;;;;;;19.80;8.57;;;;;;;12.73;100.00;102330.72;5159105;28;20392;-74
2021/10/27 08:04:57;;;;;;;22.13;9.18;;;;;;;12.72;100.00;102336.25;5159071;28;20500;-75
2021/10/27 08:07:28;;;;;;;20.90;9.13;;;;;;;12.77;100.00;102339.38;5158771;28;20335;-74
2021/10/27 08:09:58;;;;;;;21.48;8.82;;;;;;;12.78;100.00;102333.81;5159257;28;20033;-74
2021/10/27 08:12:29;;;;;;;23.92;12.00;;;;;;;12.70;100.00;102328.31;5159537;28;20416;-74
2021/10/27 08:14:59;;;;;;;27.33;10.82;;;;;;;12.72;100.00;102330.88;5159654;28;20018;-74
2021/10/27 08:17:30;;;;;;;23.65;11.90;;;;;;;12.77;100.00;102331.28;5158849;28;20083;-74
2021/10/27 08:20:01;;;;;;;26.05;13.18;;;;;;;12.80;100.00;102339.94;5157888;28;20499;-75
2021/10/27 08:22:32;;;;;;;31.70;12.90;;;;;;;12.83;100.00;102339.63;5158995;28;20037;-75
2021/10/27 08:25:06;;;;;;;27.73;13.73;;;;;;;12.83;100.00;102350.41;5158010;28;20033;-75
2021/10/27 08:27:37;;;;;;;24.58;12.23;;;;;;;12.79;100.00;102338.22;5158494;28;20023;-75
2021/10/27 08:30:11;;;;;;;29.95;13.45;;;;;;;12.87;100.00;102340.19;5157966;28;20041;-75
2021/10/27 08:32:45;;;;;;;24.38;12.77;;;;;;;12.91;100.00;102345.16;5158505;28;20030;-75
2021/10/27 08:35:16;;;;;;;30.95;12.45;;;;;;;12.95;100.00;102345.69;5158628;28;20042;-75
2021/10/27 08:37:49;;;;;;;23.88;12.93;;;;;;;13.15;100.00;102351.88;5158401;28;20018;-75
2021/10/27 08:40:20;;;;;;;28.50;12.75;;;;;;;13.21;100.00;102345.94;5158280;28;20154;-75
2021/10/27 08:42:51;;;;;;;29.52;14.02;;;;;;;13.34;100.00;102349.16;5158453;28;20034;-74
2021/10/27 08:45:23;;;;;;;27.77;12.45;;;;;;;13.34;100.00;102343.75;5158422;28;20026;-75
2021/10/27 08:47:55;;;;;;;27.45;12.48;;;;;;;13.31;100.00;102354.00;5158168;28;20030;-75
2021/10/27 08:50:26;;;;;;;26.23;13.18;;;;;;;13.28;100.00;102351.59;5158817;28;20026;-74
2021/10/27 08:52:56;;;;;;;21.98;12.35;;;;;;;13.26;100.00;102356.31;5158592;28;20053;-74
2021/10/27 08:55:27;;;;;;;23.70;13.05;;;;;;;13.27;100.00;102350.75;5158133;28;20036;-75
2021/10/27 08:57:58;;;;;;;22.42;12.27;;;;;;;13.34;100.00;102357.25;5158967;28;20352;-75
2021/10/27 09:00:45;;;;;;;24.25;12.85;;;;;;;13.45;100.00;102358.91;5157188;28;20113;-75
2021/10/27 09:03:26;;;;;;;27.35;11.60;;;;;;;13.46;100.00;102352.53;5190173;28;20033;-75
2021/10/27 09:06:21;;;;;;;25.15;12.25;;;;;;;13.61;100.00;102351.03;5158016;28;20388;-75
2021/10/27 09:09:11;;;;;;;26.75;12.52;;;;;;;13.53;100.00;102356.31;5169245;28;20038;-75
2021/10/27 09:34:41;;;;;;;23.23;9.52;;;;;;;13.37;100.00;102359.66;5158020;28;20109;-74
2021/10/27 09:37:32;;;;;;;23.60;10.48;;;;;;;13.40;100.00;102364.75;5162427;28;20100;-75
2021/10/27 09:43:09;;;;;;;19.25;10.00;;;;;;;13.64;100.00;102358.81;5163247;28;20102;-75
2021/10/27 09:56:09;;;;;;;20.77;9.07;;;;;;;13.53;100.00;102358.16;5176189;28;20387;-74
2021/10/27 10:04:03;;;;;;;32.03;9.07;;;;;;;13.70;100.00;102352.84;5155562;28;20022;-74
2021/10/27 10:04:32;;;;;;;23.40;8.75;;;;;;;13.84;100.00;102362.25;5155494;28;20330;-74
2021/10/27 10:07:03;;;;;;;18.17;8.88;;;;;;;13.81;100.00;102359.03;5155131;28;20041;-74
2021/10/27 10:09:38;;;;;;;17.20;8.43;;;;;;;13.81;100.00;102361.72;5155101;28;20030;-75
2021/10/27 10:12:10;;;;;;;16.52;7.82;;;;;;;13.99;100.00;102362.59;5155749;28;20034;-75
2021/10/27 10:14:47;;;;;;;17.25;7.70;;;;;;;14.03;100.00;102358.59;5153605;28;20019;-74
2021/10/27 10:17:18;;;;;;;13.57;7.63;;;;;;;14.22;100.00;102360.31;5155678;28;20027;-75
2021/10/27 10:19:49;;;;;;;16.63;6.72;;;;;;;14.25;100.00;102363.53;5155389;28;20415;-75
2021/10/27 10:22:35;;;;;;;12.82;6.70;;;;;;;14.29;100.00;102357.84;5155892;28;20034;-75
2021/10/27 10:25:17;;;;;;;12.10;6.90;;;;;;;14.16;100.00;102352.84;5155594;28;20082;-75
2021/10/27 10:27:49;;;;;;;14.82;6.88;;;;;;;14.12;100.00;102363.09;5156018;28;20023;-75
2021/10/27 10:30:32;;;;;;;16.52;6.18;;;;;;;14.14;100.00;102352.13;5155633;28;20045;-74
2021/10/27 10:33:07;;;;;;;14.88;6.28;;;;;;;14.33;100.00;102356.53;5144013;28;20472;-75
2021/10/27 10:35:57;;;;;;;19.05;6.72;;;;;;;14.55;100.00;102353.38;5154893;28;20240;-75
2021/10/27 10:38:39;;;;;;;15.30;6.82;;;;;;;14.69;100.00;102352.81;5155470;28;20113;-75
2021/10/27 10:44:23;;;;;;;19.88;6.82;;;;;;;14.90;100.00;102349.78;5154923;28;20035;-76
2021/10/27 11:24:43;;;;;;;10.88;4.63;;;;;;;16.63;100.00;102319.59;5141061;28;20047;-75
2021/10/27 11:37:21;;;;;;;8.95;4.10;;;;;;;16.85;100.00;102313.50;5140911;28;20164;-76
2021/10/27 11:38:58;;;;;;;10.75;3.75;;;;;;;17.30;100.00;102306.59;5141115;28;20034;-75
2021/10/27 11:41:34;;;;;;;11.50;3.40;;;;;;;17.27;100.00;102305.09;5141433;28;20544;-75
2021/10/27 11:44:13;;;;;;;10.30;3.17;;;;;;;17.17;100.00;102288.19;5140185;28;20478;-74
2021/10/27 11:46:46;;;;;;;13.23;3.05;;;;;;;17.22;100.00;102296.63;5140397;28;20034;-75
2021/10/27 11:49:17;;;;;;;10.05;3.22;;;;;;;17.20;100.00;102295.09;5140471;28;20027;-75
2021/10/27 11:51:54;;;;;;;10.80;2.38;;;;;;;17.25;100.00;102285.41;5140035;28;20121;-76
2021/10/27 11:54:27;;;;;;;6.50;2.25;;;;;;;17.32;100.00;102293.72;5140377;28;20089;-76
2021/10/27 11:57:01;;;;;;;5.43;2.08;;;;;;;17.56;100.00;102284.59;5140299;28;20061;-76
2021/10/27 11:59:50;;;;;;;9.02;3.58;;;;;;;17.65;100.00;102283.53;5141558;28;20070;-76
2021/10/27 12:02:21;;;;;;;9.57;2.35;;;;;;;17.78;100.00;102278.41;5140591;28;20042;-76
2021/10/27 12:04:53;;;;;;;4.80;2.17;;;;;;;17.76;100.00;102279.59;5140091;28;20022;-76
2021/10/27 12:07:38;;;;;;;8.40;2.72;;;;;;;17.62;100.00;102289.34;5155260;28;20031;-76
2021/10/27 12:10:26;;;;;;;10.18;3.25;;;;;;;17.76;100.00;102283.16;5139921;28;20026;-76
2021/10/27 12:13:05;;;;;;;9.40;3.53;;;;;;;17.88;100.00;102280.06;5139288;28;20077;-76
2021/10/27 12:18:10;;;;;;;5.10;2.00;;;;;;;17.92;100.00;102275.94;5138313;28;20030;-76
2021/10/27 12:20:44;;;;;;;10.40;2.10;;;;;;;17.71;100.00;102269.25;5141013;28;20089;-76
2021/10/27 12:23:21;;;;;;;5.05;2.15;;;;;;;17.54;100.00;102271.22;5146895;28;20053;-77
2021/10/27 12:26:06;;;;;;;7.88;2.08;;;;;;;17.71;100.00;102266.53;5144260;28;20633;-76
2021/10/27 12:28:37;;;;;;;4.38;2.05;;;;;;;17.59;100.00;102268.81;5138227;28;20022;-76
2021/10/27 12:31:23;;;;;;;13.15;6.75;;;;;;;17.51;100.00;102257.16;5138788;28;20041;-76
2021/10/27 12:33:53;;;;;;;6.95;2.22;;;;;;;17.42;100.00;102259.09;5145673;28;20036;-76
2021/10/27 12:36:28;;;;;;;5.53;2.33;;;;;;;17.20;100.00;102254.44;5146868;28;20030;-76
2021/10/27 12:39:09;;;;;;;15.45;2.85;;;;;;;16.96;100.00;102255.34;5147793;28;20026;-75
2021/10/27 12:41:39;;;;;;;14.77;4.97;;;;;;;16.75;100.00;102248.63;5138407;28;20605;-76
2021/10/27 12:44:24;;;;;;;8.85;4.03;;;;;;;16.58;100.00;102250.50;5139193;28;20061;-76
2021/10/27 12:47:08;;;;;;;5.57;2.40;;;;;;;16.54;100.00;102243.72;5151700;28;21895;-76
2021/10/27 12:49:42;;;;;;;5.32;2.45;;;;;;;16.57;100.00;102246.09;5143656;28;20038;-76
2021/10/27 12:52:28;;;;;;;5.38;2.00;;;;;;;16.67;100.00;102242.38;5145551;28;20023;-75
2021/10/27 12:55:06;;;;;;;10.20;1.98;;;;;;;16.77;100.00;102238.47;5137585;28;20523;-76
2021/10/27 12:57:51;;;;;;;5.90;2.03;;;;;;;16.71;100.00;102239.16;5144524;28;20052;-76
2021/10/27 13:00:43;;;;;;;5.18;1.60;;;;;;;16.86;100.00;102241.16;5137188;28;20445;-76
2021/10/27 13:03:26;;;;;;;6.47;2.60;;;;;;;16.58;100.00;102233.41;5151158;28;20026;-76
2021/10/27 13:14:01;;;;;;;7.25;1.88;;;;;;;16.74;100.00;102221.72;5148885;28;20037;-77
2021/10/27 13:19:52;;;;;;;8.10;2.13;;;;;;;16.74;100.00;102213.59;5140219;28;20034;-76
2021/10/27 13:30:45;;;;;;;7.78;2.35;;;;;;;16.78;100.00;102199.53;5147510;28;20097;-76
2021/10/27 13:33:19;;;;;;;3.92;1.85;;;;;;;16.78;100.00;102215.78;5137040;28;20038;-76
2021/10/27 13:35:50;;;;;;;4.35;1.92;;;;;;;16.91;100.00;102207.06;5136530;28;20031;-76
2021/10/27 13:38:23;;;;;;;4.57;2.55;;;;;;;16.89;100.00;102202.88;5139357;28;20526;-76
2021/10/27 13:40:54;;;;;;;5.53;2.13;;;;;;;17.01;100.00;102209.59;5137614;28;20034;-76
2021/10/27 13:43:43;;;;;;;6.05;2.58;;;;;;;16.99;100.00;102207.06;5143067;28;20037;-76
2021/10/27 13:46:27;;;;;;;4.03;1.90;;;;;;;16.86;100.00;102209.47;5140558;28;20049;-76
2021/10/27 14:08:30;;;;;;;6.22;2.40;;;;;;;16.57;100.00;102196.50;5149392;28;20030;-76
2021/10/27 14:11:06;;;;;;;7.32;3.28;;;;;;;16.58;100.00;102195.47;5135997;28;20018;-76
2021/10/27 14:19:16;;;;;;;4.38;2.10;;;;;;;16.52;100.00;102172.63;5140342;28;20513;-75
2021/10/27 15:20:47;;;;;;;4.28;2.42;;;;;;;15.46;100.00;102140.19;5146928;28;20058;-73